North San Ysidro, New Mexico
Current Conditions -  °F | °C
As of 6:53 PM on Wednesday 22 Oct 2014 (Local Time) from KLVS Reporting Station
Few Clouds Few Clouds  
Wind Chill: 55°   Ceiling: Unl
Heat Index: 55°   Visibility: 10mi
Dew Point: 34°   Wind: 9mph
Humidity: 45%   Direction: 320°NW
Pressure: 30.19"   Gusts: NA
Location:  35.4225°N, 105.56°W
Report Text: KLVS 230053Z AUTO 32008KT 10SM FEW090 13/01 A3019 RMK AO2 SLP165 T01280011
Loading
Personal Weather Stations






























Interactive Weather Map
Tropical Storm Tracking
New forecast layout! Learn more

10-Day Weather Forecast

Advertisements
Track Severe Weather on mobile